Aérodrome :
LOGIN :

S'inscrire | Disclaimer

   EN    FR    IT 

 










Légende :    VFR   VFR Marginal   IFR   IFR Intensif   IFR Très Intensif
Visi : 
Plafond : 
>= 8 km
>= 3000ft
5 à 8 km
1000 à 3000 ft
1500m à 5 km
500 à 1000 ft
800 à 1500m
200 à 500 ft
< 800m
< 200 ft
Symboles :   Orages  Brouillard  Fortes neiges  Fortes précipitations  Vent > 20 kt
SIGMETs :   Divers  Orages  Givrage  Turbulence  Onde Orograph.  Cendres Volcan.






- Altitude de l'aérodrome : 79 ft
- Code IATA : SPU


LDSP - Split

DERNIER METAR :
  • 200500Z 31006KT CAVOK 20/16 Q1010 NOSIG

METARs EXPIRÉS :
  • 200430Z 26004KT 240V300 CAVOK 19/16 Q1010 NOSIG
  • 200400Z AUTO 36005KT 300V090 CAVOK 19/16 Q1010 NOSIG
  • 200330Z AUTO 30009KT CAVOK 20/16 Q1009 NOSIG
  • 200300Z AUTO VRB05KT CAVOK 20/16 Q1009 NOSIG
  • 200230Z AUTO 32008KT CAVOK 21/16 Q1009 TEMPO SHRA SCT030TCU

TAF TAF LDSP
Valide du 20 à 00h jusqu'au 21 à 00h UTC


192325Z 2000/2100 11012KT 9999 FEW030 BKN050 TX25/2013Z TN19/2004Z
PROB40
TEMPO 2000/2003 3000 +TSRA SCT020CB OVC030
BECMG 2001/2003 30010KT
BECMG 2010/2012 23010KT
BECMG 2015/2017 30007KT



MET'MAP, la Météo Aéronautique d'un coup d'oeil ! - Copyright ORBIFLY Décembre 2007 - Disclaimer

ORBIFLY MET'MAP TEAM :

Programmation & Développement : Alexandra Zaïnal
Sur une idée originale de : Baudouin d'Aumeries
Assistance à la programmation : Marc-Olivier Méhu
Soutien technique & logistique : Manuel Goepfert

Contact : metmap@orbifly.com




SOURCES & CREDITS :

   NOAA